createdAt,value
2019-02-01T00:00:36.460Z,994.15
2019-02-01T00:01:46.162Z,994.15
2019-02-01T00:02:56.112Z,994.16
2019-02-01T00:04:06.042Z,994.11
2019-02-01T00:05:15.976Z,994.19
2019-02-01T00:06:25.655Z,994.1
2019-02-01T00:07:35.614Z,994.15
2019-02-01T00:08:45.063Z,994.11
2019-02-01T00:09:54.750Z,994.15
2019-02-01T00:11:04.183Z,994.19
2019-02-01T00:12:13.872Z,994.16
2019-02-01T00:13:23.886Z,994.13
2019-02-01T00:14:33.825Z,994.08
2019-02-01T00:15:43.766Z,994.09
2019-02-01T00:16:53.745Z,994.09
2019-02-01T00:18:06.687Z,994.04
2019-02-01T00:19:16.980Z,994.06
2019-02-01T00:20:26.915Z,994.03
2019-02-01T00:21:36.849Z,994.02
2019-02-01T00:22:46.782Z,994.03
2019-02-01T00:23:56.472Z,994.05
2019-02-01T00:25:06.416Z,994.07
2019-02-01T00:26:16.350Z,994.06
2019-02-01T00:27:26.282Z,994.06
2019-02-01T00:28:35.708Z,994.04
2019-02-01T00:29:45.648Z,994
2019-02-01T00:30:55.345Z,993.98
2019-02-01T00:32:05.044Z,994.01
2019-02-01T00:33:26.616Z,993.97
2019-02-01T00:34:36.695Z,993.95
2019-02-01T00:35:46.632Z,993.92
2019-02-01T00:36:56.674Z,993.91
2019-02-01T00:38:06.618Z,993.92
2019-02-01T00:39:16.306Z,993.87
2019-02-01T00:40:26.252Z,993.9
2019-02-01T00:41:35.692Z,993.83
2019-02-01T00:42:45.362Z,993.81
2019-02-01T00:43:55.047Z,993.84
2019-02-01T00:45:04.986Z,993.8
2019-02-01T00:46:14.941Z,993.79
2019-02-01T00:47:24.890Z,993.76
2019-02-01T00:48:34.578Z,993.76
2019-02-01T00:49:44.265Z,993.7
2019-02-01T00:50:53.708Z,993.72
2019-02-01T00:52:03.406Z,993.69
2019-02-01T00:53:13.341Z,993.63
2019-02-01T00:54:23.288Z,993.65
2019-02-01T00:55:32.955Z,993.66
2019-02-01T00:56:42.648Z,993.66
2019-02-01T00:57:52.339Z,993.6
2019-02-01T00:59:02.262Z,993.63
2019-02-01T01:00:12.312Z,993.64
2019-02-01T01:01:22.249Z,993.58
2019-02-01T01:02:32.206Z,993.59
2019-02-01T01:03:42.152Z,993.58
2019-02-01T01:04:51.839Z,993.57
2019-02-01T01:06:01.778Z,993.56
2019-02-01T01:07:11.722Z,993.52
2019-02-01T01:08:21.687Z,993.5
2019-02-01T01:09:31.620Z,993.48
2019-02-01T01:10:41.304Z,993.49
2019-02-01T01:11:51.000Z,993.51
2019-02-01T01:13:00.694Z,993.46
2019-02-01T01:14:10.646Z,993.45
2019-02-01T01:15:20.581Z,993.4
2019-02-01T01:16:30.536Z,993.41
2019-02-01T01:17:40.478Z,993.35
2019-02-01T01:18:50.417Z,993.36
2019-02-01T01:20:00.350Z,993.42
2019-02-01T01:21:10.414Z,993.36
2019-02-01T01:22:20.349Z,993.36
2019-02-01T01:23:30.329Z,993.32
2019-02-01T01:24:40.299Z,993.35
2019-02-01T01:25:49.984Z,993.35
2019-02-01T01:26:59.918Z,993.39
2019-02-01T01:28:09.610Z,993.37
2019-02-01T01:29:19.656Z,993.41
2019-02-01T01:30:29.602Z,993.45
2019-02-01T01:31:39.360Z,993.43
2019-02-01T01:32:49.038Z,993.49
2019-02-01T01:33:58.981Z,993.44
2019-02-01T01:35:08.912Z,993.44
2019-02-01T01:36:18.605Z,993.46
2019-02-01T01:37:28.538Z,993.49
2019-02-01T01:38:38.479Z,993.49
2019-02-01T01:39:48.423Z,993.5
2019-02-01T01:40:58.140Z,993.46
2019-02-01T01:42:07.812Z,993.45
2019-02-01T01:43:17.750Z,993.44
2019-02-01T01:44:27.778Z,993.47
2019-02-01T01:45:37.735Z,993.46
2019-02-01T01:46:47.660Z,993.46
2019-02-01T01:47:57.597Z,993.49
2019-02-01T01:49:07.538Z,993.46
2019-02-01T01:50:17.513Z,993.44
2019-02-01T01:51:27.453Z,993.46
2019-02-01T01:52:37.397Z,993.49
2019-02-01T01:53:47.316Z,993.49
2019-02-01T01:54:56.763Z,993.54
2019-02-01T01:56:06.314Z,993.54
2019-02-01T01:57:15.990Z,993.52
2019-02-01T01:58:26.021Z,993.56
2019-02-01T01:59:36.029Z,993.63
2019-02-01T02:00:45.731Z,993.62
2019-02-01T02:01:55.518Z,993.73
2019-02-01T02:03:05.449Z,993.72
2019-02-01T02:04:15.401Z,993.81
2019-02-01T02:05:25.334Z,993.79
2019-02-01T02:06:35.267Z,993.81
2019-02-01T02:07:45.210Z,993.8
2019-02-01T02:08:54.878Z,993.78
2019-02-01T02:10:04.803Z,993.71
2019-02-01T02:11:14.747Z,993.68
2019-02-01T02:12:24.423Z,993.65
2019-02-01T02:13:34.108Z,993.61
2019-02-01T02:14:43.788Z,993.59
2019-02-01T02:15:53.484Z,993.57
2019-02-01T02:17:03.423Z,993.53
2019-02-01T02:18:13.355Z,993.54
2019-02-01T02:19:23.041Z,993.5
2019-02-01T02:20:33.008Z,993.47
2019-02-01T02:21:42.688Z,993.41
2019-02-01T02:22:52.747Z,993.39
2019-02-01T02:24:02.704Z,993.37
2019-02-01T02:25:12.639Z,993.35
2019-02-01T02:26:22.574Z,993.34
2019-02-01T02:27:32.500Z,993.41
2019-02-01T02:28:42.428Z,993.38
2019-02-01T02:29:52.465Z,993.36
2019-02-01T02:31:02.346Z,993.33
2019-02-01T02:32:12.364Z,993.33
2019-02-01T02:33:22.370Z,993.33
2019-02-01T02:34:32.312Z,993.37
2019-02-01T02:35:42.248Z,993.34
2019-02-01T02:36:51.977Z,993.4
2019-02-01T02:38:01.165Z,993.35
2019-02-01T02:39:11.099Z,993.34
2019-02-01T02:40:21.073Z,993.29
2019-02-01T02:41:30.775Z,993.25
2019-02-01T02:42:40.476Z,993.23
2019-02-01T02:43:50.204Z,993.29
2019-02-01T02:44:59.893Z,993.33
2019-02-01T02:46:09.840Z,993.31
2019-02-01T02:47:22.060Z,993.34
2019-02-01T02:48:31.497Z,993.26
2019-02-01T02:49:41.431Z,993.28
2019-02-01T02:50:51.384Z,993.19
2019-02-01T02:52:01.078Z,993.16
2019-02-01T02:53:11.011Z,993.19
2019-02-01T02:54:20.947Z,993.18
2019-02-01T02:55:30.722Z,993.21
2019-02-01T02:56:40.424Z,993.2
2019-02-01T02:57:50.380Z,993.13
2019-02-01T02:59:00.101Z,993.13
2019-02-01T03:00:10.047Z,993.1
2019-02-01T03:01:19.991Z,993.07
2019-02-01T03:02:29.690Z,993.05
2019-02-01T03:03:39.630Z,993.07
2019-02-01T03:04:49.614Z,993.02
2019-02-01T03:05:59.537Z,993.05
2019-02-01T03:07:09.479Z,993.06
2019-02-01T03:08:19.422Z,993.08
2019-02-01T03:09:29.381Z,993.1
2019-02-01T03:10:39.060Z,993.09
2019-02-01T03:11:48.747Z,993.11
2019-02-01T03:12:58.664Z,993.07
2019-02-01T03:14:08.369Z,993.02
2019-02-01T03:15:18.327Z,993.05
2019-02-01T03:16:28.024Z,993.04
2019-02-01T03:17:37.702Z,993.03
2019-02-01T03:18:47.389Z,992.99
2019-02-01T03:19:57.303Z,993.04
2019-02-01T03:21:07.237Z,993.07
2019-02-01T03:22:17.053Z,993.14
2019-02-01T03:23:26.756Z,993.14
2019-02-01T03:24:36.687Z,993.09
2019-02-01T03:25:46.379Z,993.15
2019-02-01T03:26:56.077Z,993.07
2019-02-01T03:28:05.792Z,993.06
2019-02-01T03:29:15.731Z,993.1
2019-02-01T03:30:25.676Z,993.1
2019-02-01T03:31:35.703Z,993.09
2019-02-01T03:32:45.719Z,993.14
2019-02-01T03:33:55.789Z,993.1
2019-02-01T03:35:05.725Z,993.1
2019-02-01T03:36:15.685Z,993.12
2019-02-01T03:37:25.125Z,993.09
2019-02-01T03:38:35.066Z,993.03
2019-02-01T03:39:44.994Z,992.98
2019-02-01T03:40:54.722Z,993.01
2019-02-01T03:42:04.437Z,992.98
2019-02-01T03:43:14.442Z,992.92
2019-02-01T03:44:24.417Z,992.9
2019-02-01T03:45:34.356Z,992.89
2019-02-01T03:46:44.307Z,992.83
2019-02-01T03:47:54.000Z,992.88
2019-02-01T03:49:03.938Z,992.82
2019-02-01T03:50:25.901Z,992.81
2019-02-01T03:51:35.588Z,992.78
2019-02-01T03:52:45.643Z,992.75
2019-02-01T03:53:55.641Z,992.75
2019-02-01T03:55:05.588Z,992.66
2019-02-01T03:56:15.279Z,992.68
2019-02-01T03:57:24.979Z,992.65
2019-02-01T03:58:34.409Z,992.59
2019-02-01T03:59:44.368Z,992.58
2019-02-01T04:00:54.304Z,992.57
2019-02-01T04:02:04.255Z,992.56
2019-02-01T04:03:13.701Z,992.54
2019-02-01T04:04:23.651Z,992.53
2019-02-01T04:05:33.080Z,992.56
2019-02-01T04:06:42.781Z,992.57
2019-02-01T04:07:52.714Z,992.55
2019-02-01T04:09:02.403Z,992.59
2019-02-01T04:10:12.342Z,992.62
2019-02-01T04:11:22.434Z,992.63
2019-02-01T04:12:32.113Z,992.67
2019-02-01T04:13:41.550Z,992.69
2019-02-01T04:14:51.493Z,992.67
2019-02-01T04:16:01.192Z,992.73
2019-02-01T04:17:10.896Z,992.67
2019-02-01T04:18:20.843Z,992.66
2019-02-01T04:19:38.080Z,992.66
2019-02-01T04:20:57.889Z,992.59
2019-02-01T04:22:07.573Z,992.54
2019-02-01T04:23:17.013Z,992.57
2019-02-01T04:24:26.451Z,992.58
2019-02-01T04:25:36.524Z,992.57
2019-02-01T04:26:46.204Z,992.55
2019-02-01T04:27:56.138Z,992.47
2019-02-01T04:29:06.081Z,992.56
2019-02-01T04:30:15.510Z,992.59
2019-02-01T04:31:25.489Z,992.56
2019-02-01T04:32:35.656Z,992.57
2019-02-01T04:33:45.605Z,992.48
2019-02-01T04:34:55.536Z,992.44
2019-02-01T04:36:05.593Z,992.44
2019-02-01T04:37:15.553Z,992.47
2019-02-01T04:38:25.242Z,992.45
2019-02-01T04:39:34.916Z,992.46
2019-02-01T04:40:44.848Z,992.44
2019-02-01T04:41:54.800Z,992.38
2019-02-01T04:43:04.754Z,992.3
2019-02-01T04:44:14.687Z,992.25
2019-02-01T04:45:24.452Z,992.28
2019-02-01T04:46:33.880Z,992.33
2019-02-01T04:47:43.736Z,992.28
2019-02-01T04:48:53.690Z,992.3
2019-02-01T04:50:04.275Z,992.35
2019-02-01T04:51:14.255Z,992.36
2019-02-01T04:52:24.063Z,992.41
2019-02-01T04:53:33.509Z,992.46
2019-02-01T04:54:43.189Z,992.41
2019-02-01T04:55:53.118Z,992.43
2019-02-01T04:57:03.051Z,992.45
2019-02-01T04:58:12.734Z,992.43
2019-02-01T04:59:22.671Z,992.3
2019-02-01T05:00:32.812Z,992.31
2019-02-01T05:01:42.751Z,992.31
2019-02-01T05:02:52.688Z,992.33
2019-02-01T05:04:02.659Z,992.27
2019-02-01T05:05:12.339Z,992.26
2019-02-01T05:06:22.330Z,992.24
2019-02-01T05:07:32.273Z,992.25
2019-02-01T05:08:42.224Z,992.21
2019-02-01T05:09:52.162Z,992.2
2019-02-01T05:11:02.119Z,992.15
2019-02-01T05:12:11.813Z,992.21
2019-02-01T05:13:21.506Z,992.16
2019-02-01T05:14:31.450Z,992.15
2019-02-01T05:15:41.425Z,992.09
2019-02-01T05:16:50.895Z,992.01
2019-02-01T05:18:00.568Z,992
2019-02-01T05:19:10.680Z,992.01
2019-02-01T05:20:21.318Z,992.05
2019-02-01T05:21:31.171Z,992.04
2019-02-01T05:22:40.840Z,991.97
2019-02-01T05:23:50.535Z,992.03
2019-02-01T05:25:00.491Z,992.03
2019-02-01T05:26:09.942Z,991.98
2019-02-01T05:27:19.384Z,992.02
2019-02-01T05:28:29.326Z,991.99
2019-02-01T05:29:39.015Z,991.95
2019-02-01T05:30:48.968Z,991.94
2019-02-01T05:31:58.927Z,991.94
2019-02-01T05:33:08.860Z,991.89
2019-02-01T05:34:18.654Z,991.9
2019-02-01T05:35:28.650Z,991.85
2019-02-01T05:36:38.616Z,991.84
2019-02-01T05:37:48.553Z,991.84
2019-02-01T05:38:58.504Z,991.79
2019-02-01T05:40:08.239Z,991.74
2019-02-01T05:41:18.022Z,991.72
2019-02-01T05:42:27.448Z,991.68
2019-02-01T05:43:37.381Z,991.64
2019-02-01T05:44:47.078Z,991.63
2019-02-01T05:45:56.768Z,991.6
2019-02-01T05:47:06.457Z,991.51
2019-02-01T05:48:16.146Z,991.5
2019-02-01T05:49:26.151Z,991.41
2019-02-01T05:50:36.146Z,991.44
2019-02-01T05:51:46.079Z,991.47
2019-02-01T05:52:56.020Z,991.43
2019-02-01T05:54:05.710Z,991.48
2019-02-01T05:55:15.388Z,991.45
2019-02-01T05:56:25.348Z,991.43
2019-02-01T05:57:35.306Z,991.43
2019-02-01T05:58:45.266Z,991.45
2019-02-01T05:59:55.284Z,991.5
2019-02-01T06:01:04.483Z,991.49
2019-02-01T06:02:14.164Z,991.54
2019-02-01T06:03:24.092Z,991.56
2019-02-01T06:04:34.040Z,991.61
2019-02-01T06:05:43.974Z,991.62
2019-02-01T06:06:53.663Z,991.63
2019-02-01T06:08:03.588Z,991.66
2019-02-01T06:09:13.281Z,991.64
2019-02-01T06:10:23.232Z,991.64
2019-02-01T06:11:33.208Z,991.6
2019-02-01T06:12:43.166Z,991.63
2019-02-01T06:13:53.117Z,991.68
2019-02-01T06:15:02.795Z,991.72
2019-02-01T06:16:12.750Z,991.76
2019-02-01T06:17:22.443Z,991.79
2019-02-01T06:18:32.381Z,991.75
2019-02-01T06:19:42.068Z,991.73
2019-02-01T06:20:51.997Z,991.73
2019-02-01T06:22:03.162Z,991.74
2019-02-01T06:23:13.092Z,991.73
2019-02-01T06:24:22.521Z,991.72
2019-02-01T06:25:32.456Z,991.62
2019-02-01T06:26:42.430Z,991.58
2019-02-01T06:27:52.371Z,991.63
2019-02-01T06:29:02.310Z,991.6
2019-02-01T06:30:11.767Z,991.61
2019-02-01T06:31:22.848Z,991.55
2019-02-01T06:32:32.457Z,991.58
2019-02-01T06:33:42.168Z,991.6
2019-02-01T06:34:51.874Z,991.64
2019-02-01T06:36:01.831Z,991.68
2019-02-01T06:37:11.273Z,991.62
2019-02-01T06:38:21.243Z,991.6
2019-02-01T06:39:31.178Z,991.58
2019-02-01T06:40:40.876Z,991.57
2019-02-01T06:41:50.567Z,991.48
2019-02-01T06:43:00.531Z,991.51
2019-02-01T06:44:10.612Z,991.58
2019-02-01T06:45:20.552Z,991.63
2019-02-01T06:46:30.255Z,991.73
2019-02-01T06:47:40.024Z,991.75
2019-02-01T06:48:49.973Z,991.76
2019-02-01T06:49:59.407Z,991.71
2019-02-01T06:51:09.380Z,991.75
2019-02-01T06:52:19.322Z,991.75
2019-02-01T06:53:29.018Z,991.68
2019-02-01T06:54:38.958Z,991.72
2019-02-01T06:55:48.890Z,991.72
2019-02-01T06:56:58.832Z,991.72
2019-02-01T06:58:08.812Z,991.71
2019-02-01T06:59:18.502Z,991.69
2019-02-01T07:00:28.454Z,991.68
2019-02-01T07:01:38.433Z,991.69
2019-02-01T07:02:48.125Z,991.73
2019-02-01T07:03:58.172Z,991.69
2019-02-01T07:05:08.132Z,991.73
2019-02-01T07:06:18.053Z,991.74
2019-02-01T07:07:27.761Z,991.75
2019-02-01T07:08:37.213Z,991.75
2019-02-01T07:09:47.152Z,991.81
2019-02-01T07:10:57.090Z,991.85
2019-02-01T07:12:06.792Z,991.84
2019-02-01T07:13:16.911Z,991.84
2019-02-01T07:14:26.847Z,991.9
2019-02-01T07:15:36.567Z,991.92
2019-02-01T07:16:46.507Z,991.88
2019-02-01T07:17:56.565Z,991.86
2019-02-01T07:19:06.498Z,991.83
2019-02-01T07:20:16.453Z,991.84
2019-02-01T07:21:26.383Z,991.97
2019-02-01T07:22:36.079Z,991.91
2019-02-01T07:23:46.028Z,991.94
2019-02-01T07:24:55.732Z,991.94
2019-02-01T07:26:05.201Z,991.89
2019-02-01T07:27:15.153Z,991.96
2019-02-01T07:28:24.590Z,991.99
2019-02-01T07:29:34.351Z,991.99
2019-02-01T07:30:44.036Z,991.99
2019-02-01T07:31:53.980Z,992
2019-02-01T07:33:03.921Z,991.94
2019-02-01T07:34:14.987Z,991.89
2019-02-01T07:35:24.889Z,991.85
2019-02-01T07:36:34.078Z,991.76
2019-02-01T07:37:43.512Z,991.79
2019-02-01T07:38:53.438Z,991.8
2019-02-01T07:40:03.380Z,991.76
2019-02-01T07:41:13.068Z,991.76
2019-02-01T07:42:22.753Z,991.78
2019-02-01T07:43:32.716Z,991.72
2019-02-01T07:44:42.393Z,991.72
2019-02-01T07:45:51.826Z,991.68
2019-02-01T07:47:01.767Z,991.74
2019-02-01T07:48:11.741Z,991.71
2019-02-01T07:49:21.687Z,991.74
2019-02-01T07:50:31.385Z,991.69
2019-02-01T07:51:41.058Z,991.64
2019-02-01T07:52:53.175Z,991.64
2019-02-01T07:54:03.126Z,991.63
2019-02-01T07:55:13.067Z,991.55
2019-02-01T07:56:23.013Z,991.57
2019-02-01T07:57:32.943Z,991.57
2019-02-01T07:58:42.896Z,991.53
2019-02-01T07:59:52.852Z,991.55
2019-02-01T08:01:02.291Z,991.51
2019-02-01T08:02:11.979Z,991.55
2019-02-01T08:03:21.655Z,991.59
2019-02-01T08:04:31.599Z,991.64
2019-02-01T08:05:41.289Z,991.7
2019-02-01T08:06:50.723Z,991.71
2019-02-01T08:08:00.706Z,991.67
2019-02-01T08:09:10.655Z,991.64
2019-02-01T08:10:20.371Z,991.67
2019-02-01T08:11:30.317Z,991.6
2019-02-01T08:12:40.263Z,991.59
2019-02-01T08:13:50.204Z,991.52
2019-02-01T08:14:59.639Z,991.47
2019-02-01T08:16:09.584Z,991.42
2019-02-01T08:17:19.549Z,991.38
2019-02-01T08:18:29.477Z,991.28
2019-02-01T08:19:39.423Z,991.32
2019-02-01T08:20:53.863Z,991.32
2019-02-01T08:22:03.821Z,991.35
2019-02-01T08:23:13.542Z,991.28
2019-02-01T08:24:23.594Z,991.31
2019-02-01T08:25:33.533Z,991.25
2019-02-01T08:26:43.269Z,991.31
2019-02-01T08:27:52.716Z,991.32
2019-02-01T08:29:02.479Z,991.32
2019-02-01T08:30:12.434Z,991.31
2019-02-01T08:31:22.389Z,991.34
2019-02-01T08:32:32.493Z,991.34
2019-02-01T08:33:41.937Z,991.33
2019-02-01T08:34:51.643Z,991.25
2019-02-01T08:36:01.339Z,991.18
2019-02-01T08:37:10.559Z,991.2
2019-02-01T08:38:20.031Z,991.1
2019-02-01T08:39:29.964Z,991.02
2019-02-01T08:40:39.397Z,990.99
2019-02-01T08:41:49.345Z,991.01
2019-02-01T08:43:06.069Z,991.02
2019-02-01T08:44:16.474Z,991.04
2019-02-01T08:45:26.415Z,991.1
2019-02-01T08:46:36.365Z,991.17
2019-02-01T08:47:46.078Z,991.13
2019-02-01T08:48:55.299Z,991.15
2019-02-01T08:50:05.506Z,991.1
2019-02-01T08:51:15.482Z,991.13
2019-02-01T08:52:25.441Z,991.15
2019-02-01T08:53:35.414Z,991.17
2019-02-01T08:54:45.118Z,991.14
2019-02-01T08:55:55.226Z,991.19
2019-02-01T08:57:04.696Z,991.2
2019-02-01T08:58:14.656Z,991.22
2019-02-01T08:59:24.371Z,991.23
2019-02-01T09:00:33.897Z,991.24
2019-02-01T09:01:43.865Z,991.27
2019-02-01T09:02:53.687Z,991.31
2019-02-01T09:04:03.424Z,991.33
2019-02-01T09:05:13.361Z,991.32
2019-02-01T09:06:23.377Z,991.29
2019-02-01T09:07:33.325Z,991.21
2019-02-01T09:08:43.151Z,991.21
2019-02-01T09:09:53.104Z,991.14
2019-02-01T09:11:03.158Z,991.13
2019-02-01T09:12:13.097Z,991.16
2019-02-01T09:13:23.103Z,991.21
2019-02-01T09:14:33.066Z,991.27
2019-02-01T09:15:42.832Z,991.31
2019-02-01T09:16:52.776Z,991.31
2019-02-01T09:18:02.733Z,991.31
2019-02-01T09:19:12.895Z,991.36
2019-02-01T09:20:22.605Z,991.34
2019-02-01T09:21:32.634Z,991.39
2019-02-01T09:22:53.442Z,991.4
2019-02-01T09:24:03.133Z,991.35
2019-02-01T09:25:12.883Z,991.3
2019-02-01T09:26:22.827Z,991.34
2019-02-01T09:27:32.799Z,991.37
2019-02-01T09:28:42.755Z,991.39
2019-02-01T09:29:52.443Z,991.38
2019-02-01T09:31:02.470Z,991.33
2019-02-01T09:32:12.472Z,991.28
2019-02-01T09:33:22.447Z,991.33
2019-02-01T09:34:32.477Z,991.28
2019-02-01T09:35:42.443Z,991.24
2019-02-01T09:36:52.166Z,991.29
2019-02-01T09:38:02.101Z,991.35
2019-02-01T09:39:12.059Z,991.36
2019-02-01T09:40:22.022Z,991.33
2019-02-01T09:41:31.721Z,991.28
2019-02-01T09:42:41.655Z,991.24
2019-02-01T09:43:51.342Z,991.26
2019-02-01T09:45:01.039Z,991.28
2019-02-01T09:46:12.296Z,991.32
2019-02-01T09:47:22.338Z,991.35
2019-02-01T09:48:32.036Z,991.42
2019-02-01T09:49:41.985Z,991.47
2019-02-01T09:50:51.940Z,991.5
2019-02-01T09:52:05.201Z,991.49
2019-02-01T09:53:15.554Z,991.54
2019-02-01T09:54:25.652Z,991.55
2019-02-01T09:55:35.604Z,991.49
2019-02-01T09:56:45.549Z,991.53
2019-02-01T09:57:55.263Z,991.54
2019-02-01T09:59:05.241Z,991.56
2019-02-01T10:00:15.212Z,991.5
2019-02-01T10:01:24.978Z,991.51
2019-02-01T10:02:34.942Z,991.51
2019-02-01T10:03:44.927Z,991.49
2019-02-01T10:05:00.978Z,991.55
2019-02-01T10:06:10.935Z,991.56
2019-02-01T10:07:20.870Z,991.52
2019-02-01T10:08:30.849Z,991.5
2019-02-01T10:09:40.315Z,991.49
2019-02-01T10:10:50.327Z,991.46
2019-02-01T10:12:00.291Z,991.53
2019-02-01T10:13:10.259Z,991.52
2019-02-01T10:14:19.972Z,991.56
2019-02-01T10:15:29.943Z,991.56
2019-02-01T10:16:39.647Z,991.54
2019-02-01T10:17:49.334Z,991.55
2019-02-01T10:18:59.211Z,991.48
2019-02-01T10:20:09.184Z,991.43
2019-02-01T10:21:19.148Z,991.4
2019-02-01T10:22:28.849Z,991.42
2019-02-01T10:23:38.787Z,991.39
2019-02-01T10:24:50.842Z,991.38
2019-02-01T10:26:00.774Z,991.4
2019-02-01T10:27:13.627Z,991.4
2019-02-01T10:28:23.554Z,991.34
2019-02-01T10:29:33.535Z,991.34
2019-02-01T10:30:43.622Z,991.31
2019-02-01T10:31:53.667Z,991.26
2019-02-01T10:33:03.126Z,991.31
2019-02-01T10:34:12.571Z,991.3
2019-02-01T10:35:22.280Z,991.29
2019-02-01T10:36:32.252Z,991.27
2019-02-01T10:37:42.212Z,991.24
2019-02-01T10:38:52.407Z,991.21
2019-02-01T10:40:02.360Z,991.19
2019-02-01T10:41:12.441Z,991.12
2019-02-01T10:42:22.435Z,991.09
2019-02-01T10:43:32.129Z,991.06
2019-02-01T10:44:42.086Z,991.03
2019-02-01T10:45:54.265Z,990.97
2019-02-01T10:47:10.835Z,990.94
2019-02-01T10:48:21.140Z,990.98
2019-02-01T10:49:31.232Z,990.96
2019-02-01T10:50:41.310Z,990.93
2019-02-01T10:51:51.270Z,990.93
2019-02-01T10:53:00.970Z,990.97
2019-02-01T10:54:10.726Z,990.94
2019-02-01T10:55:20.436Z,990.96
2019-02-01T10:56:32.386Z,990.97
2019-02-01T10:57:42.337Z,990.95
2019-02-01T10:58:52.282Z,990.99
2019-02-01T11:00:02.366Z,990.98
2019-02-01T11:01:13.914Z,991.07
2019-02-01T11:02:23.863Z,991
2019-02-01T11:03:33.790Z,991.03
2019-02-01T11:04:43.247Z,991
2019-02-01T11:05:52.976Z,990.97
2019-02-01T11:07:05.540Z,990.99
2019-02-01T11:08:15.480Z,990.95
2019-02-01T11:09:25.163Z,990.94
2019-02-01T11:10:35.108Z,990.9
2019-02-01T11:11:44.560Z,990.84
2019-02-01T11:12:54.511Z,990.75
2019-02-01T11:14:04.480Z,990.8
2019-02-01T11:15:13.930Z,990.78
2019-02-01T11:16:26.822Z,990.77
2019-02-01T11:17:37.215Z,990.76
2019-02-01T11:18:46.902Z,990.83
2019-02-01T11:19:56.351Z,990.84
2019-02-01T11:21:06.056Z,990.86
2019-02-01T11:22:16.007Z,990.81
2019-02-01T11:23:36.667Z,990.79
2019-02-01T11:24:46.617Z,990.74
2019-02-01T11:25:56.338Z,990.72
2019-02-01T11:27:06.282Z,990.71
2019-02-01T11:28:16.263Z,990.68
2019-02-01T11:29:25.709Z,990.74
2019-02-01T11:30:35.152Z,990.73
2019-02-01T11:31:45.109Z,990.75
2019-02-01T11:32:54.536Z,990.83
2019-02-01T11:34:04.484Z,990.84
2019-02-01T11:35:14.192Z,990.82
2019-02-01T11:36:23.893Z,990.82
2019-02-01T11:37:33.586Z,990.8
2019-02-01T11:38:43.350Z,990.84
2019-02-01T11:39:53.281Z,990.82
2019-02-01T11:41:03.296Z,990.84
2019-02-01T11:42:13.241Z,990.85
2019-02-01T11:43:22.957Z,990.86
2019-02-01T11:44:32.398Z,990.84
2019-02-01T11:45:42.345Z,990.8
2019-02-01T11:46:52.029Z,990.82
2019-02-01T11:48:01.994Z,990.77
2019-02-01T11:49:11.702Z,990.81
2019-02-01T11:50:21.649Z,990.81
2019-02-01T11:51:31.610Z,990.82
2019-02-01T11:52:47.898Z,990.76
2019-02-01T11:53:58.436Z,990.74
2019-02-01T11:55:08.499Z,990.8
2019-02-01T11:56:18.212Z,990.79
2019-02-01T11:57:27.670Z,990.8
2019-02-01T11:58:37.643Z,990.85
2019-02-01T11:59:46.868Z,990.82
2019-02-01T12:00:56.818Z,990.82
2019-02-01T12:02:08.045Z,990.85
2019-02-01T12:03:18.035Z,990.85
2019-02-01T12:04:28.000Z,990.9
2019-02-01T12:05:37.689Z,990.89
2019-02-01T12:06:47.638Z,990.91
2019-02-01T12:07:57.688Z,990.87
2019-02-01T12:09:07.653Z,990.96
2019-02-01T12:10:17.596Z,990.96
2019-02-01T12:11:27.586Z,990.97
2019-02-01T12:12:37.580Z,990.92
2019-02-01T12:13:47.533Z,990.77
2019-02-01T12:14:57.502Z,990.73
2019-02-01T12:16:07.448Z,990.74
2019-02-01T12:17:16.898Z,990.75
2019-02-01T12:18:26.576Z,990.72
2019-02-01T12:19:36.284Z,990.79
2019-02-01T12:20:46.370Z,990.72
2019-02-01T12:21:56.315Z,990.76
2019-02-01T12:23:06.019Z,990.72
2019-02-01T12:24:15.957Z,990.73
2019-02-01T12:25:25.656Z,990.69
2019-02-01T12:26:35.615Z,990.62
2019-02-01T12:27:45.558Z,990.57
2019-02-01T12:28:55.261Z,990.54
2019-02-01T12:30:05.194Z,990.48
2019-02-01T12:31:19.381Z,990.48
2019-02-01T12:32:29.614Z,990.45
2019-02-01T12:33:39.571Z,990.5
2019-02-01T12:34:49.520Z,990.5
2019-02-01T12:35:59.234Z,990.48
2019-02-01T12:37:09.180Z,990.52
2019-02-01T12:38:18.889Z,990.53
2019-02-01T12:39:28.859Z,990.47
2019-02-01T12:40:38.889Z,990.49
2019-02-01T12:41:48.322Z,990.6
2019-02-01T12:42:58.270Z,990.66
2019-02-01T12:44:07.968Z,990.66
2019-02-01T12:45:17.677Z,990.64
2019-02-01T12:46:27.651Z,990.63
2019-02-01T12:47:37.347Z,990.63
2019-02-01T12:48:47.294Z,990.63
2019-02-01T12:49:57.014Z,990.64
2019-02-01T12:51:06.973Z,990.62
2019-02-01T12:52:16.913Z,990.63
2019-02-01T12:53:26.627Z,990.62
2019-02-01T12:54:36.326Z,990.59
2019-02-01T12:55:45.760Z,990.58
2019-02-01T12:56:55.719Z,990.5
2019-02-01T12:58:05.193Z,990.58
2019-02-01T12:59:14.890Z,990.58
2019-02-01T13:00:24.596Z,990.54
2019-02-01T13:01:34.544Z,990.55
2019-02-01T13:02:44.008Z,990.59
2019-02-01T13:03:53.970Z,990.62
2019-02-01T13:05:03.912Z,990.58
2019-02-01T13:06:13.894Z,990.63
2019-02-01T13:07:23.909Z,990.66
2019-02-01T13:08:33.620Z,990.63
2019-02-01T13:09:43.690Z,990.69
2019-02-01T13:10:53.647Z,990.68
2019-02-01T13:12:03.595Z,990.69
2019-02-01T13:13:13.659Z,990.65
2019-02-01T13:14:23.456Z,990.67
2019-02-01T13:15:33.146Z,990.65
2019-02-01T13:16:43.105Z,990.62
2019-02-01T13:17:52.572Z,990.64
2019-02-01T13:19:02.528Z,990.61
2019-02-01T13:20:12.213Z,990.6
2019-02-01T13:21:22.055Z,990.62
2019-02-01T13:22:32.001Z,990.63
2019-02-01T13:23:41.697Z,990.61
2019-02-01T13:24:51.385Z,990.6
2019-02-01T13:26:02.160Z,990.52
2019-02-01T13:27:11.862Z,990.49
2019-02-01T13:28:21.842Z,990.51
2019-02-01T13:29:31.541Z,990.55
2019-02-01T13:30:41.488Z,990.5
2019-02-01T13:31:51.438Z,990.54
2019-02-01T13:33:00.895Z,990.52
2019-02-01T13:34:10.840Z,990.56
2019-02-01T13:35:20.575Z,990.56
2019-02-01T13:36:31.983Z,990.57
2019-02-01T13:37:44.032Z,990.53
2019-02-01T13:38:53.826Z,990.56
2019-02-01T13:40:03.785Z,990.56
2019-02-01T13:41:13.715Z,990.52
2019-02-01T13:42:23.695Z,990.52
2019-02-01T13:43:33.396Z,990.54
2019-02-01T13:44:43.092Z,990.52
2019-02-01T13:46:00.704Z,990.54
2019-02-01T13:47:11.115Z,990.53
2019-02-01T13:48:20.812Z,990.47
2019-02-01T13:49:30.513Z,990.44
2019-02-01T13:50:40.466Z,990.45
2019-02-01T13:51:49.921Z,990.46
2019-02-01T13:52:59.655Z,990.49
2019-02-01T13:54:09.601Z,990.5
2019-02-01T13:55:19.276Z,990.48
2019-02-01T13:56:28.720Z,990.46
2019-02-01T13:57:38.677Z,990.47
2019-02-01T13:58:48.387Z,990.47
2019-02-01T14:00:06.221Z,990.48
2019-02-01T14:01:16.161Z,990.47
2019-02-01T14:02:25.860Z,990.44
2019-02-01T14:03:35.799Z,990.49
2019-02-01T14:04:45.773Z,990.5
2019-02-01T14:05:55.555Z,990.5
2019-02-01T14:07:05.518Z,990.55
2019-02-01T14:08:15.232Z,990.5
2019-02-01T14:09:24.927Z,990.48
2019-02-01T14:10:34.927Z,990.47
2019-02-01T14:11:44.383Z,990.52
2019-02-01T14:12:54.426Z,990.54
2019-02-01T14:14:12.124Z,990.56
2019-02-01T14:15:22.888Z,990.61
2019-02-01T14:16:35.118Z,990.61
2019-02-01T14:17:44.601Z,990.57
2019-02-01T14:18:54.287Z,990.55
2019-02-01T14:20:06.169Z,990.55
2019-02-01T14:21:15.876Z,990.49
2019-02-01T14:22:25.644Z,990.46
2019-02-01T14:23:45.939Z,990.45
2019-02-01T14:24:56.178Z,990.43
2019-02-01T14:26:09.056Z,990.39
2019-02-01T14:27:18.752Z,990.44
2019-02-01T14:28:28.689Z,990.42
2019-02-01T14:29:38.433Z,990.43
2019-02-01T14:30:48.128Z,990.45
2019-02-01T14:31:57.855Z,990.47
2019-02-01T14:33:07.545Z,990.48
2019-02-01T14:34:17.252Z,990.49
2019-02-01T14:35:27.196Z,990.48
2019-02-01T14:36:36.914Z,990.45
2019-02-01T14:37:46.636Z,990.43